Time;durP1;ratioP1;P1;durP2;ratioP2;P2;SDS_P1;SDS_P2;PMS_P1;PMS_P2;Temp;Humidity;BMP_temperature;BMP_pressure;BME280_temperature;BME280_humidity;BME280_pressure;Samples;Min_cycle;Max_cycle;Signal;HPM_P1;HPM_P2
2021/05/16 00:01:25;;;;;;;2.78;1.05;;;13.60;86.80;;;;;;5084774;28;20035;-85
2021/05/16 00:03:51;;;;;;;3.80;1.33;;;13.70;87.70;;;;;;5095669;28;20028;-85
2021/05/16 00:06:16;;;;;;;2.92;1.25;;;13.60;87.00;;;;;;5094725;28;20028;-84
2021/05/16 00:08:42;;;;;;;5.38;1.35;;;13.60;87.90;;;;;;5094582;28;20101;-85
2021/05/16 00:11:08;;;;;;;3.25;1.38;;;13.60;87.90;;;;;;5089868;28;20028;-85
2021/05/16 00:13:35;;;;;;;3.13;1.30;;;13.60;88.10;;;;;;5078839;28;20501;-85
2021/05/16 00:16:01;;;;;;;3.85;1.13;;;13.60;88.20;;;;;;5095655;28;20085;-85
2021/05/16 00:18:27;;;;;;;4.38;1.60;;;13.50;88.70;;;;;;5079127;28;20021;-84
2021/05/16 00:20:53;;;;;;;3.30;1.08;;;13.60;88.50;;;;;;5075524;28;20107;-85
2021/05/16 00:23:21;;;;;;;2.35;1.13;;;13.60;88.50;;;;;;5080427;28;20065;-84
2021/05/16 00:25:47;;;;;;;3.63;1.27;;;13.50;88.40;;;;;;5075173;28;20028;-85
2021/05/16 00:28:13;;;;;;;3.40;1.73;;;13.50;88.80;;;;;;5073716;28;20048;-85
2021/05/16 00:30:39;;;;;;;3.63;1.40;;;13.50;88.70;;;;;;5075456;28;20028;-85
2021/05/16 00:33:05;;;;;;;6.13;1.20;;;13.50;88.40;;;;;;5075379;28;20445;-85
2021/05/16 00:35:32;;;;;;;4.80;1.40;;;13.50;88.60;;;;;;5077060;28;20021;-85
2021/05/16 00:37:59;;;;;;;3.78;1.25;;;13.40;88.80;;;;;;5094947;28;20097;-84
2021/05/16 00:40:25;;;;;;;5.25;1.27;;;13.40;88.70;;;;;;5096175;28;20115;-84
2021/05/16 00:42:51;;;;;;;1.83;1.05;;;13.30;88.80;;;;;;5081126;28;20056;-85
2021/05/16 00:45:20;;;;;;;3.30;1.20;;;13.30;88.90;;;;;;5075860;28;20539;-85
2021/05/16 00:47:48;;;;;;;3.05;0.95;;;13.40;88.90;;;;;;5075676;28;20028;-86
2021/05/16 00:50:15;;;;;;;2.42;0.82;;;13.30;89.10;;;;;;5074971;28;20048;-85
2021/05/16 00:52:42;;;;;;;4.28;1.35;;;13.30;89.20;;;;;;5075595;28;20028;-86
2021/05/16 00:55:09;;;;;;;3.30;1.15;;;13.30;89.70;;;;;;5090659;28;20059;-86
2021/05/16 00:57:35;;;;;;;3.47;1.27;;;13.30;89.30;;;;;;5090867;28;20020;-85
2021/05/16 01:00:01;;;;;;;2.53;1.02;;;13.30;89.40;;;;;;5089827;28;20036;-85
2021/05/16 01:02:27;;;;;;;4.50;1.10;;;13.30;89.60;;;;;;5075412;28;20028;-85
2021/05/16 01:04:53;;;;;;;3.13;1.15;;;13.30;90.00;;;;;;5075777;28;20101;-85
2021/05/16 01:07:18;;;;;;;2.60;1.00;;;13.30;90.00;;;;;;5090463;28;20058;-87
2021/05/16 01:09:44;;;;;;;3.05;1.15;;;13.30;90.10;;;;;;5091554;28;20083;-85
2021/05/16 01:12:12;;;;;;;4.18;1.42;;;13.30;90.00;;;;;;5095189;28;20035;-86
2021/05/16 01:14:45;;;;;;;3.75;1.35;;;13.30;89.70;;;;;;5094759;28;20021;-84
2021/05/16 01:17:12;;;;;;;3.40;0.90;;;13.30;89.80;;;;;;5074914;28;20029;-85
2021/05/16 01:19:47;;;;;;;2.13;0.93;;;13.40;89.50;;;;;;5074802;28;20021;-85
2021/05/16 01:22:13;;;;;;;2.05;0.80;;;13.40;89.40;;;;;;5089881;28;20104;-85
2021/05/16 01:24:43;;;;;;;3.72;0.98;;;13.40;89.70;;;;;;5093336;28;20529;-85
2021/05/16 01:27:13;;;;;;;3.67;1.10;;;13.30;90.10;;;;;;5088248;28;20372;-85
2021/05/16 01:29:39;;;;;;;2.65;1.15;;;13.20;90.40;;;;;;5074742;28;20052;-85
2021/05/16 01:32:10;;;;;;;2.30;0.98;;;13.20;90.40;;;;;;5075417;28;20037;-85
2021/05/16 01:34:40;;;;;;;3.28;1.10;;;13.20;90.40;;;;;;5074600;28;20399;-86
2021/05/16 01:37:24;;;;;;;1.92;0.95;;;13.20;90.40;;;;;;5093974;28;20099;-85
2021/05/16 01:39:49;;;;;;;2.88;1.08;;;13.10;90.50;;;;;;5093247;28;20214;-85
2021/05/16 01:42:17;;;;;;;2.60;1.00;;;13.20;90.60;;;;;;5093500;28;20032;-86
2021/05/16 01:44:43;;;;;;;2.53;0.95;;;13.10;90.40;;;;;;5093668;28;20454;-85
2021/05/16 01:47:09;;;;;;;3.28;0.85;;;13.10;90.60;;;;;;5088829;28;20028;-85
2021/05/16 01:49:49;;;;;;;4.85;1.20;;;13.00;90.70;;;;;;5074701;28;20032;-86
2021/05/16 01:52:15;;;;;;;2.90;1.03;;;12.90;90.90;;;;;;5074645;28;20037;-85
2021/05/16 01:54:41;;;;;;;1.90;0.70;;;12.90;90.80;;;;;;5093946;28;20263;-86
2021/05/16 01:57:08;;;;;;;1.88;1.00;;;13.00;90.60;;;;;;5078092;28;20479;-85
2021/05/16 01:59:41;;;;;;;1.52;0.98;;;13.00;90.70;;;;;;5077972;28;20510;-84
2021/05/16 02:02:07;;;;;;;1.80;0.98;;;13.00;90.70;;;;;;5081803;28;20024;-84
2021/05/16 02:04:33;;;;;;;2.15;0.73;;;13.10;90.70;;;;;;5098333;28;20034;-86
2021/05/16 02:06:59;;;;;;;4.30;1.27;;;13.10;90.70;;;;;;5097502;28;20028;-85
2021/05/16 02:09:27;;;;;;;2.13;0.82;;;13.10;90.70;;;;;;5093512;28;20115;-86
2021/05/16 02:11:53;;;;;;;1.65;0.60;;;13.10;91.10;;;;;;5078342;28;20021;-86
2021/05/16 02:14:30;;;;;;;2.10;0.88;;;13.00;90.70;;;;;;5077808;28;20104;-84
2021/05/16 02:17:01;;;;;;;1.42;0.85;;;13.00;90.70;;;;;;5077723;28;20031;-84
2021/05/16 02:19:27;;;;;;;3.80;1.00;;;13.00;90.60;;;;;;5093604;28;20035;-85
2021/05/16 02:21:54;;;;;;;1.83;0.90;;;13.00;90.80;;;;;;5077766;28;20020;-85
2021/05/16 02:24:20;;;;;;;1.75;0.85;;;13.00;90.80;;;;;;5092649;28;20479;-85
2021/05/16 02:26:46;;;;;;;1.83;0.88;;;13.00;90.50;;;;;;5092965;28;20038;-86
2021/05/16 02:29:13;;;;;;;2.15;0.93;;;13.00;90.50;;;;;;5078222;28;20677;-86
2021/05/16 02:31:38;;;;;;;3.17;0.88;;;13.10;90.50;;;;;;5077498;28;20399;-85
2021/05/16 02:34:09;;;;;;;1.67;0.80;;;13.10;90.30;;;;;;5077615;28;20029;-85
2021/05/16 02:36:35;;;;;;;1.52;0.85;;;13.10;90.40;;;;;;5090319;28;20031;-85
2021/05/16 02:39:02;;;;;;;2.22;0.90;;;13.10;90.40;;;;;;5097497;28;20024;-84
2021/05/16 02:41:28;;;;;;;2.38;0.90;;;13.00;90.50;;;;;;5096687;28;20028;-86
2021/05/16 02:43:54;;;;;;;2.30;0.80;;;13.00;90.60;;;;;;5092304;28;20044;-85
2021/05/16 02:46:19;;;;;;;1.48;0.70;;;12.90;90.70;;;;;;5076435;28;20021;-84
2021/05/16 02:48:45;;;;;;;2.65;0.80;;;12.90;90.70;;;;;;5075715;28;20032;-86
2021/05/16 02:51:11;;;;;;;2.05;0.77;;;13.00;90.60;;;;;;5075687;28;20013;-85
2021/05/16 02:53:36;;;;;;;2.30;0.90;;;12.90;90.70;;;;;;5076979;28;20104;-84
2021/05/16 02:56:02;;;;;;;2.95;1.17;;;13.00;90.80;;;;;;5076914;28;20116;-84
2021/05/16 02:58:28;;;;;;;1.92;0.80;;;13.00;90.60;;;;;;5077621;28;20032;-85
2021/05/16 03:00:54;;;;;;;1.33;0.70;;;13.10;90.50;;;;;;5077066;28;20064;-85
2021/05/16 03:03:20;;;;;;;1.88;0.80;;;13.00;90.70;;;;;;5093165;28;20028;-85
2021/05/16 03:05:46;;;;;;;2.03;0.77;;;13.10;90.60;;;;;;5091021;28;20082;-84
2021/05/16 03:08:11;;;;;;;0.95;0.55;;;13.20;90.70;;;;;;5076817;28;20491;-85
2021/05/16 03:10:37;;;;;;;1.85;0.80;;;13.10;90.70;;;;;;5076723;28;20052;-85
2021/05/16 03:13:03;;;;;;;1.60;0.68;;;13.20;90.60;;;;;;5076967;28;20036;-86
2021/05/16 03:15:29;;;;;;;1.27;0.55;;;13.10;90.70;;;;;;5077217;28;20063;-85
2021/05/16 03:17:55;;;;;;;1.63;0.68;;;13.10;90.80;;;;;;5091039;28;20233;-85
2021/05/16 03:20:20;;;;;;;1.70;1.00;;;13.10;90.80;;;;;;5095326;28;20028;-85
2021/05/16 03:22:46;;;;;;;2.08;0.98;;;13.10;90.80;;;;;;5095595;28;20115;-86
2021/05/16 03:25:14;;;;;;;1.48;0.80;;;13.00;90.90;;;;;;5089456;28;20017;-86
2021/05/16 03:27:40;;;;;;;1.67;0.85;;;13.00;90.90;;;;;;5076467;28;20111;-85
2021/05/16 03:30:09;;;;;;;3.33;0.98;;;13.00;90.90;;;;;;5081056;28;20464;-85
2021/05/16 03:32:36;;;;;;;2.22;0.90;;;12.90;91.00;;;;;;5077620;28;20861;-85
2021/05/16 03:35:04;;;;;;;2.28;0.73;;;13.00;91.00;;;;;;5089029;28;20024;-85
2021/05/16 03:37:30;;;;;;;3.13;0.70;;;13.00;90.90;;;;;;5092694;28;20124;-85
2021/05/16 03:39:56;;;;;;;2.63;0.90;;;13.00;90.90;;;;;;5079073;28;20043;-85
2021/05/16 03:42:22;;;;;;;1.85;0.90;;;13.00;90.90;;;;;;5076586;28;20028;-85
2021/05/16 03:44:48;;;;;;;1.75;0.77;;;13.00;90.70;;;;;;5079875;28;20020;-84
2021/05/16 03:47:14;;;;;;;2.22;0.82;;;13.00;90.80;;;;;;5096219;28;20105;-85
2021/05/16 03:49:39;;;;;;;1.73;0.85;;;13.10;90.70;;;;;;5082385;28;20020;-84
2021/05/16 03:52:06;;;;;;;1.73;0.75;;;13.00;90.70;;;;;;5075804;28;20036;-86
2021/05/16 03:54:32;;;;;;;3.10;1.17;;;13.00;90.90;;;;;;5076711;28;20106;-86
2021/05/16 03:56:58;;;;;;;2.80;0.90;;;13.00;91.00;;;;;;5075538;28;20036;-86
2021/05/16 03:59:25;;;;;;;1.77;0.77;;;13.00;90.80;;;;;;5075868;28;20395;-83
2021/05/16 04:01:51;;;;;;;2.13;0.80;;;13.00;90.70;;;;;;5094177;28;20501;-84
2021/05/16 04:04:17;;;;;;;2.45;0.82;;;13.00;90.70;;;;;;5095818;28;20099;-84
2021/05/16 04:06:43;;;;;;;1.80;0.90;;;13.00;90.90;;;;;;5079328;28;20043;-85
2021/05/16 04:09:08;;;;;;;2.10;0.95;;;13.00;90.70;;;;;;5074158;28;20039;-84
2021/05/16 04:11:34;;;;;;;2.75;0.90;;;13.00;90.40;;;;;;5075497;28;20028;-85
2021/05/16 04:14:00;;;;;;;1.08;0.60;;;13.00;90.30;;;;;;5087089;28;20031;-84
2021/05/16 04:16:28;;;;;;;2.15;0.90;;;13.00;90.20;;;;;;5093875;28;20043;-84
2021/05/16 15:25:37;;;;;;;0.75;0.30;;;16.50;75.00;;;;;;5109753;27;20918;-76
2021/05/16 15:28:03;;;;;;;0.47;0.30;;;15.90;76.10;;;;;;5085841;28;20097;-79
2021/05/16 15:30:29;;;;;;;0.65;0.32;;;15.70;75.60;;;;;;5084240;28;20977;-76
2021/05/16 15:32:54;;;;;;;0.47;0.30;;;15.50;75.00;;;;;;5086800;28;20560;-76
2021/05/16 15:35:20;;;;;;;0.70;0.45;;;15.50;75.50;;;;;;5091709;28;20521;-76
2021/05/16 15:37:46;;;;;;;1.13;0.40;;;15.50;75.20;;;;;;5091293;28;20012;-77
2021/05/16 15:40:12;;;;;;;0.63;0.30;;;15.60;73.20;;;;;;5090878;28;20132;-76
2021/05/16 15:42:38;;;;;;;0.52;0.40;;;15.60;72.50;;;;;;5075229;28;20491;-77
2021/05/16 15:45:05;;;;;;;0.30;0.20;;;15.80;74.80;;;;;;5091942;28;20069;-76
2021/05/16 15:47:31;;;;;;;0.40;0.30;;;16.40;73.90;;;;;;5091269;28;20043;-76
2021/05/16 15:49:57;;;;;;;0.35;0.20;;;17.00;72.40;;;;;;5088522;28;20399;-76
2021/05/16 15:52:22;;;;;;;0.75;0.30;;;17.20;71.60;;;;;;5089591;28;20114;-75
2021/05/16 15:54:48;;;;;;;0.85;0.30;;;17.00;71.90;;;;;;5090565;28;20023;-75
2021/05/16 15:57:14;;;;;;;0.80;0.38;;;17.00;72.90;;;;;;5091073;28;20103;-74
2021/05/16 15:59:40;;;;;;;1.27;0.40;;;17.00;73.20;;;;;;5091257;28;20027;-79
2021/05/16 16:02:07;;;;;;;0.70;0.40;;;17.20;72.20;;;;;;5091118;28;20012;-75
2021/05/16 16:04:32;;;;;;;0.80;0.40;;;17.20;72.50;;;;;;5088264;28;20028;-76
2021/05/16 16:06:58;;;;;;;1.15;0.40;;;17.00;73.10;;;;;;5068006;28;20043;-78
2021/05/16 16:09:24;;;;;;;0.93;0.40;;;17.10;74.00;;;;;;5071262;28;20519;-78
2021/05/16 16:11:50;;;;;;;0.43;0.30;;;17.20;74.20;;;;;;5067652;28;20082;-78
2021/05/16 16:14:15;;;;;;;0.80;0.40;;;17.30;71.70;;;;;;5088113;28;20027;-78
2021/05/16 16:16:42;;;;;;;1.17;0.30;;;17.40;73.50;;;;;;5088341;28;20028;-78
2021/05/16 16:19:08;;;;;;;1.17;0.45;;;17.50;74.90;;;;;;5085634;28;20032;-78
2021/05/16 16:21:34;;;;;;;0.60;0.40;;;17.40;72.00;;;;;;5063170;28;20036;-78
2021/05/16 16:24:00;;;;;;;0.90;0.40;;;17.20;72.60;;;;;;5086777;28;20040;-78
2021/05/16 16:26:26;;;;;;;1.05;0.35;;;17.10;72.20;;;;;;5088796;28;20025;-78
2021/05/16 16:28:52;;;;;;;1.02;0.40;;;17.00;73.40;;;;;;5091076;28;20020;-78
2021/05/16 16:31:18;;;;;;;1.02;0.40;;;17.10;73.50;;;;;;5066964;28;20667;-77
2021/05/16 16:33:43;;;;;;;1.52;0.50;;;17.20;73.80;;;;;;5070626;28;20031;-78
2021/05/16 16:36:11;;;;;;;1.13;0.55;;;17.30;73.80;;;;;;5070755;28;20032;-77
2021/05/16 16:38:37;;;;;;;0.65;0.30;;;17.40;73.50;;;;;;5076038;28;20009;-77
2021/05/16 16:41:03;;;;;;;1.48;0.52;;;17.40;73.80;;;;;;5071100;28;20081;-77
2021/05/16 16:43:29;;;;;;;1.00;0.50;;;17.40;72.40;;;;;;5076001;28;20645;-78
2021/05/16 16:45:55;;;;;;;1.65;0.60;;;17.20;71.30;;;;;;5058536;28;20020;-77
2021/05/16 16:48:21;;;;;;;1.27;0.50;;;17.20;72.50;;;;;;5076726;28;20017;-77
2021/05/16 16:50:47;;;;;;;1.48;0.88;;;17.30;72.50;;;;;;5073788;28;20060;-77
2021/05/16 16:53:12;;;;;;;1.55;0.90;;;17.40;71.50;;;;;;5056782;28;20107;-77
2021/05/16 16:55:38;;;;;;;0.98;0.47;;;17.40;72.00;;;;;;5074329;28;20052;-80
2021/05/16 16:58:05;;;;;;;1.85;0.88;;;17.30;70.90;;;;;;5073439;28;20017;-77
2021/05/16 17:00:33;;;;;;;1.92;0.80;;;17.30;72.00;;;;;;5072531;28;20116;-77
2021/05/16 17:02:58;;;;;;;1.65;0.70;;;17.30;70.40;;;;;;5070126;28;20033;-77
2021/05/16 17:05:24;;;;;;;2.38;0.95;;;17.40;70.50;;;;;;5073419;28;20054;-77
2021/05/16 17:07:50;;;;;;;1.88;0.68;;;17.40;70.40;;;;;;5071794;28;20358;-78
2021/05/16 17:10:21;;;;;;;2.00;0.68;;;17.50;70.90;;;;;;5066973;28;20078;-80
2021/05/16 17:12:47;;;;;;;1.45;0.65;;;17.40;70.20;;;;;;5066561;28;20050;-78
2021/05/16 17:15:14;;;;;;;1.65;0.68;;;17.20;68.30;;;;;;5072017;28;20024;-77
2021/05/16 17:17:40;;;;;;;1.85;0.80;;;17.10;70.00;;;;;;5074863;28;20040;-77
2021/05/16 17:20:08;;;;;;;3.40;0.82;;;16.70;70.80;;;;;;5057444;28;20024;-78
2021/05/16 17:22:34;;;;;;;2.10;0.88;;;16.60;73.20;;;;;;5073237;28;20474;-77
2021/05/16 17:25:00;;;;;;;2.08;0.77;;;16.50;75.50;;;;;;5074220;28;20048;-78
2021/05/16 17:27:26;;;;;;;1.88;0.77;;;16.30;76.80;;;;;;5071990;28;20020;-82
2021/05/16 17:29:52;;;;;;;2.40;0.65;;;16.20;78.00;;;;;;5075277;28;20103;-78
2021/05/16 17:32:18;;;;;;;1.17;0.47;;;16.00;77.00;;;;;;5075918;28;20025;-77
2021/05/16 17:34:43;;;;;;;1.85;0.90;;;15.80;78.40;;;;;;5068894;28;20106;-79
2021/05/16 17:37:09;;;;;;;1.17;0.60;;;15.90;80.60;;;;;;5070651;28;20028;-79
2021/05/16 17:39:35;;;;;;;2.08;0.68;;;16.30;80.00;;;;;;5073151;28;20139;-81
2021/05/16 17:42:01;;;;;;;1.65;0.60;;;16.30;78.60;;;;;;5072896;28;20071;-89
2021/05/16 17:44:27;;;;;;;1.20;0.70;;;16.50;76.90;;;;;;5057062;28;20063;-85
2021/05/16 17:46:53;;;;;;;1.80;0.60;;;16.60;77.40;;;;;;5071895;28;20453;-79
2021/05/16 17:49:19;;;;;;;1.20;0.50;;;16.60;77.30;;;;;;5070753;28;20021;-80
2021/05/16 17:51:46;;;;;;;2.22;0.80;;;16.50;76.80;;;;;;5059905;28;20036;-82
2021/05/16 17:54:11;;;;;;;1.40;0.60;;;16.30;76.20;;;;;;5071471;28;20426;-82
2021/05/16 17:56:37;;;;;;;1.38;0.73;;;16.20;77.70;;;;;;5071230;28;20016;-83
2021/05/16 17:59:08;;;;;;;2.30;0.80;;;16.00;77.00;;;;;;5060286;28;20115;-77
2021/05/16 18:01:36;;;;;;;;;;;16.00;77.80;;;;;;5056436;28;20013;-79
2021/05/16 18:04:02;;;;;;;2.30;0.90;;;16.10;78.20;;;;;;5074057;28;19916;-79
2021/05/16 18:06:28;;;;;;;1.85;0.85;;;16.00;77.00;;;;;;5076832;28;20460;-80
2021/05/16 18:08:54;;;;;;;2.10;1.17;;;16.00;77.30;;;;;;5073314;28;20024;-82
2021/05/16 18:11:23;;;;;;;2.78;1.00;;;15.90;77.50;;;;;;5050567;28;20052;-80
2021/05/16 18:13:50;;;;;;;0.90;0.50;;;15.90;77.50;;;;;;5068694;28;20212;-79
2021/05/16 18:16:16;;;;;;;1.83;0.85;;;16.00;77.90;;;;;;5070563;28;20024;-78
2021/05/16 18:18:41;;;;;;;1.60;0.90;;;16.00;78.40;;;;;;5072723;28;20020;-80
2021/05/16 18:21:08;;;;;;;1.35;0.70;;;16.00;77.50;;;;;;5053897;28;20013;-80
2021/05/16 18:23:34;;;;;;;1.38;0.65;;;15.90;78.00;;;;;;5056595;28;20436;-86
2021/05/16 18:25:59;;;;;;;1.60;0.70;;;15.80;77.90;;;;;;5070267;28;20097;-86
2021/05/16 18:28:25;;;;;;;2.13;0.88;;;15.70;78.70;;;;;;5070231;28;20061;-80
2021/05/16 18:30:51;;;;;;;2.03;0.77;;;15.80;78.70;;;;;;5065227;28;20033;-80
2021/05/16 18:33:17;;;;;;;1.40;0.65;;;15.70;78.70;;;;;;5056254;28;20429;-79
2021/05/16 18:35:43;;;;;;;1.35;0.75;;;15.70;79.30;;;;;;5041608;28;20490;-79
2021/05/16 18:38:08;;;;;;;2.28;0.95;;;15.60;79.30;;;;;;5068581;28;20112;-81
2021/05/16 18:40:35;;;;;;;1.63;0.80;;;15.70;79.60;;;;;;5052175;28;20035;-78
2021/05/16 18:43:00;;;;;;;2.40;0.85;;;15.80;79.10;;;;;;5053573;28;20078;-80
2021/05/16 18:45:28;;;;;;;2.20;1.13;;;15.90;78.90;;;;;;5066772;28;20025;-79
2021/05/16 18:47:54;;;;;;;3.03;1.02;;;15.80;78.50;;;;;;5070157;28;20040;-76
2021/05/16 18:50:20;;;;;;;2.13;1.10;;;15.80;78.40;;;;;;5060225;28;20043;-82
2021/05/16 18:52:46;;;;;;;2.40;1.25;;;15.70;77.70;;;;;;5045826;28;20132;-80
2021/05/16 18:55:14;;;;;;;2.58;1.48;;;15.70;77.90;;;;;;5056383;28;20029;-77
2021/05/16 18:57:41;;;;;;;2.47;1.35;;;15.50;77.90;;;;;;5057165;28;20044;-78
2021/05/16 19:00:12;;;;;;;2.35;0.93;;;15.40;77.40;;;;;;5070463;28;20051;-75
2021/05/16 19:02:38;;;;;;;2.90;1.23;;;15.30;76.70;;;;;;5073656;28;20024;-75
2021/05/16 19:05:06;;;;;;;1.88;0.80;;;15.30;76.70;;;;;;5048887;28;20024;-79
2021/05/16 19:07:32;;;;;;;1.45;0.50;;;15.10;75.60;;;;;;5051684;28;20105;-77
2021/05/16 19:09:59;;;;;;;3.65;0.70;;;14.90;75.60;;;;;;5050040;28;20059;-77
2021/05/16 19:12:24;;;;;;;1.95;0.70;;;15.00;76.30;;;;;;5048652;28;20043;-77
2021/05/16 19:14:50;;;;;;;1.90;0.75;;;14.90;76.50;;;;;;5050737;28;20032;-78
2021/05/16 19:17:16;;;;;;;1.73;0.75;;;14.80;77.20;;;;;;5065006;28;20024;-76
2021/05/16 19:19:42;;;;;;;1.58;0.90;;;14.90;77.20;;;;;;5050538;28;20024;-79
2021/05/16 19:22:09;;;;;;;1.55;0.70;;;14.90;76.40;;;;;;5066151;28;20033;-75
2021/05/16 19:24:35;;;;;;;1.70;0.98;;;14.90;77.40;;;;;;5045320;28;20109;-75
2021/05/16 19:27:02;;;;;;;1.48;0.82;;;14.90;77.20;;;;;;5065060;28;20040;-79
2021/05/16 19:29:27;;;;;;;2.05;0.85;;;14.80;77.70;;;;;;5062802;28;20036;-76
2021/05/16 19:31:53;;;;;;;1.65;0.80;;;14.80;77.70;;;;;;5065262;28;20032;-76
2021/05/16 19:34:19;;;;;;;1.70;0.80;;;14.70;77.50;;;;;;5059961;28;20048;-76
2021/05/16 19:36:45;;;;;;;0.80;0.60;;;14.70;77.70;;;;;;5044717;28;20082;-76
2021/05/16 19:39:13;;;;;;;1.63;0.70;;;14.80;77.70;;;;;;5051027;28;20031;-80
2021/05/16 19:41:40;;;;;;;1.38;0.68;;;14.80;77.80;;;;;;5048680;28;20459;-78
2021/05/16 19:44:06;;;;;;;1.30;0.68;;;14.90;78.00;;;;;;5047259;28;20500;-78
2021/05/16 19:46:32;;;;;;;1.80;0.82;;;14.80;78.20;;;;;;5046671;28;20163;-77
2021/05/16 19:48:58;;;;;;;1.85;0.80;;;14.70;78.40;;;;;;5055246;28;20108;-77
2021/05/16 19:51:24;;;;;;;1.88;0.93;;;14.60;78.50;;;;;;5060321;28;20028;-77
2021/05/16 19:53:50;;;;;;;1.48;0.82;;;14.70;78.00;;;;;;5043382;28;20121;-77
2021/05/16 19:56:17;;;;;;;2.45;0.80;;;14.60;78.10;;;;;;5066808;28;20070;-80
2021/05/16 19:58:42;;;;;;;2.92;0.80;;;14.70;78.20;;;;;;5051473;28;20020;-78
2021/05/16 20:01:10;;;;;;;1.42;0.68;;;14.50;78.80;;;;;;5066854;28;20579;-78
2021/05/16 20:03:36;;;;;;;1.40;0.73;;;14.50;78.50;;;;;;5065810;28;20101;-78
2021/05/16 20:06:02;;;;;;;1.25;0.60;;;14.60;78.30;;;;;;5067269;28;20035;-78
2021/05/16 20:08:27;;;;;;;1.02;0.50;;;14.70;77.80;;;;;;5065654;28;20028;-78
2021/05/16 20:10:53;;;;;;;1.17;0.65;;;14.70;77.90;;;;;;5069697;28;20485;-78
2021/05/16 20:13:19;;;;;;;1.55;0.73;;;14.50;77.70;;;;;;5055355;28;20499;-78
2021/05/16 20:15:45;;;;;;;1.95;0.73;;;14.40;78.50;;;;;;5069437;28;20037;-78
2021/05/16 20:18:11;;;;;;;1.60;0.75;;;14.50;78.20;;;;;;5069931;28;20020;-78
2021/05/16 20:20:37;;;;;;;1.40;0.90;;;14.40;78.50;;;;;;5070904;28;20031;-78
2021/05/16 20:23:03;;;;;;;1.88;0.80;;;14.40;78.80;;;;;;5064032;28;20020;-78
2021/05/16 20:25:29;;;;;;;0.75;0.50;;;14.40;79.10;;;;;;5071709;28;20067;-78
2021/05/16 20:27:56;;;;;;;1.25;0.65;;;14.40;79.70;;;;;;5055845;28;20020;-78
2021/05/16 20:30:31;;;;;;;1.58;0.73;;;14.30;79.50;;;;;;5046119;28;20086;-78
2021/05/16 20:33:11;;;;;;;1.70;0.88;;;14.50;79.50;;;;;;5072785;28;20025;-78
2021/05/16 20:35:39;;;;;;;1.35;0.77;;;14.50;79.20;;;;;;5049593;28;20131;-78
2021/05/16 20:38:06;;;;;;;1.63;0.90;;;14.50;78.90;;;;;;5050965;28;20036;-78
2021/05/16 20:40:34;;;;;;;1.58;0.70;;;14.50;78.50;;;;;;5069167;28;20040;-78
2021/05/16 20:43:01;;;;;;;1.42;0.70;;;14.60;78.30;;;;;;5050961;28;20083;-79
2021/05/16 20:45:31;;;;;;;1.77;0.80;;;14.60;78.10;;;;;;5075249;28;20040;-78
2021/05/16 20:47:58;;;;;;;;;;;14.60;78.40;;;;;;5045347;28;20055;-79
2021/05/16 20:50:23;;;;;;;1.55;0.93;;;14.60;78.20;;;;;;5046382;28;19913;-79
2021/05/16 20:52:49;;;;;;;0.90;0.70;;;14.60;78.60;;;;;;5074411;28;20044;-79
2021/05/16 20:55:18;;;;;;;1.35;0.90;;;14.60;78.90;;;;;;5076476;28;20108;-79
2021/05/16 20:57:44;;;;;;;1.50;0.93;;;14.50;79.70;;;;;;5071363;28;20059;-79
2021/05/16 21:00:15;;;;;;;1.85;0.82;;;14.40;79.80;;;;;;5077336;28;20016;-77
2021/05/16 21:02:41;;;;;;;1.85;1.00;;;14.40;80.10;;;;;;5073561;28;20035;-78
2021/05/16 21:05:07;;;;;;;1.38;0.70;;;14.40;80.80;;;;;;5057505;28;20020;-78
2021/05/16 21:07:34;;;;;;;2.25;0.70;;;14.40;80.60;;;;;;5066978;28;20115;-78
2021/05/16 21:10:01;;;;;;;1.55;0.70;;;14.30;80.50;;;;;;5076762;28;20078;-78
2021/05/16 21:12:26;;;;;;;1.95;0.93;;;14.30;80.70;;;;;;5077277;28;20032;-78
2021/05/16 21:14:52;;;;;;;1.95;0.73;;;14.30;80.40;;;;;;5060204;28;20430;-78
2021/05/16 21:17:18;;;;;;;1.25;0.73;;;14.40;80.50;;;;;;5057649;28;20025;-78
2021/05/16 21:19:43;;;;;;;0.90;0.70;;;14.40;79.80;;;;;;5056900;28;20024;-78
2021/05/16 21:22:09;;;;;;;1.60;0.85;;;14.40;80.20;;;;;;5063596;28;20386;-78
2021/05/16 21:24:35;;;;;;;2.35;0.90;;;14.30;80.40;;;;;;5076653;28;20049;-78
2021/05/16 21:27:02;;;;;;;1.83;0.70;;;14.30;80.00;;;;;;5070056;28;20120;-78
2021/05/16 21:29:27;;;;;;;1.13;0.70;;;14.20;80.40;;;;;;5076907;28;20384;-78
2021/05/16 21:31:53;;;;;;;1.20;0.80;;;14.20;81.00;;;;;;5076758;28;20900;-78
2021/05/16 21:34:19;;;;;;;1.02;0.80;;;14.10;81.10;;;;;;5076727;28;20070;-79
2021/05/16 21:36:44;;;;;;;2.10;0.80;;;14.20;81.00;;;;;;5078225;28;20043;-78
2021/05/16 21:39:10;;;;;;;1.48;0.80;;;14.10;81.00;;;;;;5082319;28;20031;-78
2021/05/16 21:41:36;;;;;;;1.80;0.70;;;14.20;81.10;;;;;;5058443;28;20123;-78
2021/05/16 21:44:02;;;;;;;1.25;0.65;;;14.20;80.90;;;;;;5076203;28;20025;-78
2021/05/16 21:46:28;;;;;;;1.27;0.75;;;14.30;81.00;;;;;;5055222;28;20045;-78
2021/05/16 21:48:53;;;;;;;1.83;0.98;;;14.30;80.40;;;;;;5055227;28;20029;-78
2021/05/16 21:51:19;;;;;;;1.65;0.70;;;14.20;80.20;;;;;;5056804;28;20112;-78
2021/05/16 21:53:45;;;;;;;1.75;0.80;;;14.20;80.00;;;;;;5056312;28;20099;-78
2021/05/16 21:56:15;;;;;;;1.58;0.80;;;14.10;80.30;;;;;;5054235;28;20037;-78
2021/05/16 21:58:41;;;;;;;0.95;0.70;;;14.10;80.60;;;;;;5038456;28;20023;-78
2021/05/16 22:01:07;;;;;;;1.60;0.80;;;14.10;80.40;;;;;;5054733;28;20029;-78
2021/05/16 22:03:33;;;;;;;0.98;0.73;;;14.10;80.50;;;;;;5054290;28;20442;-78
2021/05/16 22:05:59;;;;;;;1.58;0.90;;;14.10;80.50;;;;;;5056100;28;20037;-78
2021/05/16 22:08:25;;;;;;;1.98;0.90;;;14.00;80.30;;;;;;5038136;28;20495;-78
2021/05/16 22:10:55;;;;;;;1.40;0.73;;;14.00;79.90;;;;;;5038133;28;20530;-78
2021/05/16 22:13:21;;;;;;;1.17;0.70;;;14.00;80.80;;;;;;5059013;28;20107;-78
2021/05/16 22:15:47;;;;;;;1.80;0.85;;;14.00;80.60;;;;;;5054506;28;20040;-78
2021/05/16 22:18:13;;;;;;;2.95;1.10;;;14.00;80.00;;;;;;5058940;28;20403;-78
2021/05/16 22:20:38;;;;;;;1.52;0.93;;;14.00;80.40;;;;;;5061169;28;20523;-78
2021/05/16 22:23:04;;;;;;;2.15;0.93;;;14.00;80.40;;;;;;5061113;28;20028;-78
2021/05/16 22:25:30;;;;;;;1.30;0.80;;;14.00;80.20;;;;;;5055927;28;20049;-78
2021/05/16 22:27:56;;;;;;;1.83;1.00;;;13.90;80.00;;;;;;5054929;28;20025;-78
2021/05/16 22:30:25;;;;;;;1.60;0.77;;;14.00;80.00;;;;;;5055887;28;20024;-78
2021/05/16 22:32:56;;;;;;;2.13;0.88;;;14.00;80.20;;;;;;5037719;28;20507;-78
2021/05/16 22:35:22;;;;;;;1.38;0.75;;;14.00;80.20;;;;;;5047003;28;20037;-78
2021/05/16 22:37:49;;;;;;;1.50;0.82;;;14.00;80.00;;;;;;5074050;28;20024;-78
2021/05/16 22:40:16;;;;;;;1.60;0.80;;;14.00;80.40;;;;;;5077742;28;20032;-78
2021/05/16 22:42:42;;;;;;;1.90;0.95;;;14.00;80.40;;;;;;5043322;28;20033;-78
2021/05/16 22:45:08;;;;;;;1.42;0.73;;;13.80;80.70;;;;;;5037758;28;20039;-78
2021/05/16 22:47:34;;;;;;;1.83;0.80;;;13.80;81.00;;;;;;5056022;28;20059;-78
2021/05/16 22:50:01;;;;;;;1.00;0.60;;;13.80;80.60;;;;;;5055658;28;20067;-78
2021/05/16 22:52:26;;;;;;;1.27;0.65;;;13.80;80.40;;;;;;5055748;28;20083;-78
2021/05/16 22:54:52;;;;;;;0.93;0.60;;;13.80;80.30;;;;;;5053459;28;20041;-78
2021/05/16 22:57:18;;;;;;;1.20;0.70;;;13.70;80.50;;;;;;5037490;28;20044;-78
2021/05/16 22:59:44;;;;;;;1.15;0.70;;;13.70;80.80;;;;;;5055586;28;20561;-78
2021/05/16 23:02:09;;;;;;;1.83;0.80;;;13.80;80.40;;;;;;5065517;28;20363;-78
2021/05/16 23:04:35;;;;;;;1.10;0.63;;;13.90;79.90;;;;;;5057318;28;20136;-78
2021/05/16 23:07:00;;;;;;;0.70;0.60;;;13.90;79.90;;;;;;5056889;28;20032;-78
2021/05/16 23:09:26;;;;;;;1.40;0.65;;;13.80;80.10;;;;;;5055489;28;20046;-78
2021/05/16 23:11:52;;;;;;;1.40;0.63;;;13.80;79.80;;;;;;5055360;28;20491;-78
2021/05/16 23:14:18;;;;;;;1.10;0.77;;;13.70;80.10;;;;;;5054077;28;20035;-78
2021/05/16 23:16:44;;;;;;;1.70;0.82;;;13.70;80.40;;;;;;5055734;28;20491;-78
2021/05/16 23:19:09;;;;;;;1.30;0.80;;;13.70;80.80;;;;;;5055337;28;20079;-78
2021/05/16 23:21:35;;;;;;;1.52;0.80;;;13.70;79.90;;;;;;5055333;28;20028;-78
2021/05/16 23:24:02;;;;;;;1.27;0.52;;;13.70;80.20;;;;;;5055544;28;20576;-78
2021/05/16 23:26:28;;;;;;;1.30;0.63;;;13.70;80.10;;;;;;5055494;28;20097;-78
2021/05/16 23:28:54;;;;;;;1.88;0.60;;;13.70;80.40;;;;;;5055281;28;20380;-78
2021/05/16 23:31:21;;;;;;;1.13;0.70;;;13.80;80.20;;;;;;5062362;28;20107;-78
2021/05/16 23:33:48;;;;;;;1.48;0.50;;;13.80;80.10;;;;;;5069014;28;20036;-78
2021/05/16 23:36:14;;;;;;;1.52;0.60;;;13.80;80.00;;;;;;5061687;28;20016;-78
2021/05/16 23:38:40;;;;;;;1.23;0.68;;;13.70;80.30;;;;;;5095035;28;20016;-78
2021/05/16 23:41:06;;;;;;;1.02;0.40;;;13.70;80.50;;;;;;5074888;28;20035;-78
2021/05/16 23:43:32;;;;;;;1.00;0.60;;;13.60;80.80;;;;;;5067999;28;20021;-78
2021/05/16 23:45:58;;;;;;;0.88;0.52;;;13.50;81.20;;;;;;5055140;28;20021;-78
2021/05/16 23:48:24;;;;;;;1.10;0.80;;;13.50;81.50;;;;;;5050752;28;20044;-78
2021/05/16 23:50:54;;;;;;;1.25;0.60;;;13.50;81.20;;;;;;5059286;28;20051;-78